sensor_id;sensor_type;location;lat;lon;timestamp;temperature;humidity
71128;SHT30;59249;59.736;30.568;2023-01-19T00:01:15;3.07;93.77
71128;SHT30;59249;59.736;30.568;2023-01-19T00:03:44;3.02;93.38
71128;SHT30;59249;59.736;30.568;2023-01-19T00:06:14;2.97;93.56
71128;SHT30;59249;59.736;30.568;2023-01-19T00:08:43;2.98;93.71
71128;SHT30;59249;59.736;30.568;2023-01-19T00:11:15;3.01;93.68
71128;SHT30;59249;59.736;30.568;2023-01-19T00:13:46;3.07;93.67
71128;SHT30;59249;59.736;30.568;2023-01-19T00:16:18;2.98;93.51
71128;SHT30;59249;59.736;30.568;2023-01-19T00:18:50;2.93;93.74
71128;SHT30;59249;59.736;30.568;2023-01-19T00:21:19;3.04;93.76
71128;SHT30;59249;59.736;30.568;2023-01-19T00:23:49;3.02;93.57
71128;SHT30;59249;59.736;30.568;2023-01-19T00:26:19;2.90;93.19
71128;SHT30;59249;59.736;30.568;2023-01-19T00:28:50;2.77;93.34
71128;SHT30;59249;59.736;30.568;2023-01-19T00:37:06;2.78;93.80
71128;SHT30;59249;59.736;30.568;2023-01-19T00:39:35;2.72;93.63
71128;SHT30;59249;59.736;30.568;2023-01-19T00:42:04;2.54;93.78
71128;SHT30;59249;59.736;30.568;2023-01-19T00:44:51;2.60;93.74
71128;SHT30;59249;59.736;30.568;2023-01-19T00:47:20;2.67;93.85
71128;SHT30;59249;59.736;30.568;2023-01-19T00:49:49;2.59;93.91
71128;SHT30;59249;59.736;30.568;2023-01-19T00:52:17;2.64;93.78
71128;SHT30;59249;59.736;30.568;2023-01-19T00:54:46;2.65;93.85
71128;SHT30;59249;59.736;30.568;2023-01-19T00:57:15;2.72;93.65
71128;SHT30;59249;59.736;30.568;2023-01-19T00:59:45;2.72;93.67
71128;SHT30;59249;59.736;30.568;2023-01-19T01:02:15;2.63;93.88
71128;SHT30;59249;59.736;30.568;2023-01-19T01:04:44;2.69;94.09
71128;SHT30;59249;59.736;30.568;2023-01-19T01:07:13;2.67;93.75
71128;SHT30;59249;59.736;30.568;2023-01-19T01:09:41;2.73;94.09
71128;SHT30;59249;59.736;30.568;2023-01-19T01:12:10;2.76;94.09
71128;SHT30;59249;59.736;30.568;2023-01-19T01:14:39;2.79;93.91
71128;SHT30;59249;59.736;30.568;2023-01-19T01:17:07;2.80;94.21
71128;SHT30;59249;59.736;30.568;2023-01-19T01:19:39;2.71;94.03
71128;SHT30;59249;59.736;30.568;2023-01-19T01:22:08;2.79;94.07
71128;SHT30;59249;59.736;30.568;2023-01-19T01:24:37;2.76;94.10
71128;SHT30;59249;59.736;30.568;2023-01-19T01:27:06;2.85;94.43
71128;SHT30;59249;59.736;30.568;2023-01-19T01:29:35;2.81;94.21
71128;SHT30;59249;59.736;30.568;2023-01-19T01:32:04;2.87;94.05
71128;SHT30;59249;59.736;30.568;2023-01-19T01:34:32;2.80;94.04
71128;SHT30;59249;59.736;30.568;2023-01-19T01:37:03;2.95;94.07
71128;SHT30;59249;59.736;30.568;2023-01-19T01:39:34;2.88;94.04
71128;SHT30;59249;59.736;30.568;2023-01-19T01:42:15;2.93;94.14
71128;SHT30;59249;59.736;30.568;2023-01-19T01:44:48;3.00;94.12
71128;SHT30;59249;59.736;30.568;2023-01-19T01:47:25;3.09;94.26
71128;SHT30;59249;59.736;30.568;2023-01-19T01:50:04;3.02;94.05
71128;SHT30;59249;59.736;30.568;2023-01-19T01:52:43;3.11;93.86
71128;SHT30;59249;59.736;30.568;2023-01-19T01:55:38;3.04;94.12
71128;SHT30;59249;59.736;30.568;2023-01-19T01:58:10;3.04;94.25
71128;SHT30;59249;59.736;30.568;2023-01-19T02:00:40;3.07;93.96
71128;SHT30;59249;59.736;30.568;2023-01-19T02:03:27;3.05;94.09
71128;SHT30;59249;59.736;30.568;2023-01-19T02:06:00;3.10;94.48
71128;SHT30;59249;59.736;30.568;2023-01-19T02:08:41;3.09;94.36
71128;SHT30;59249;59.736;30.568;2023-01-19T02:11:29;3.09;94.38
71128;SHT30;59249;59.736;30.568;2023-01-19T02:14:16;3.26;94.51
71128;SHT30;59249;59.736;30.568;2023-01-19T02:16:46;3.13;94.03
71128;SHT30;59249;59.736;30.568;2023-01-19T02:19:22;3.15;94.28
71128;SHT30;59249;59.736;30.568;2023-01-19T02:21:59;3.19;94.32
71128;SHT30;59249;59.736;30.568;2023-01-19T02:24:40;3.26;94.02
71128;SHT30;59249;59.736;30.568;2023-01-19T02:27:11;3.16;94.08
71128;SHT30;59249;59.736;30.568;2023-01-19T02:29:42;3.16;94.09
71128;SHT30;59249;59.736;30.568;2023-01-19T02:32:11;3.20;93.73
71128;SHT30;59249;59.736;30.568;2023-01-19T02:34:39;3.22;93.59
71128;SHT30;59249;59.736;30.568;2023-01-19T02:37:11;3.15;93.79
71128;SHT30;59249;59.736;30.568;2023-01-19T02:39:46;3.18;93.80
71128;SHT30;59249;59.736;30.568;2023-01-19T02:42:22;3.09;93.56
71128;SHT30;59249;59.736;30.568;2023-01-19T02:44:55;3.11;93.31
71128;SHT30;59249;59.736;30.568;2023-01-19T02:47:24;3.04;93.37
71128;SHT30;59249;59.736;30.568;2023-01-19T02:49:56;3.00;93.25
71128;SHT30;59249;59.736;30.568;2023-01-19T02:52:26;3.06;93.35
71128;SHT30;59249;59.736;30.568;2023-01-19T02:55:05;3.00;93.25
71128;SHT30;59249;59.736;30.568;2023-01-19T02:57:54;3.00;93.19
71128;SHT30;59249;59.736;30.568;2023-01-19T03:00:39;2.93;93.34
71128;SHT30;59249;59.736;30.568;2023-01-19T03:03:24;2.96;93.55
71128;SHT30;59249;59.736;30.568;2023-01-19T03:06:06;2.97;93.46
71128;SHT30;59249;59.736;30.568;2023-01-19T03:08:44;2.93;93.51
71128;SHT30;59249;59.736;30.568;2023-01-19T03:11:16;2.94;93.61
71128;SHT30;59249;59.736;30.568;2023-01-19T03:13:51;2.92;93.19
71128;SHT30;59249;59.736;30.568;2023-01-19T03:16:24;2.90;93.28
71128;SHT30;59249;59.736;30.568;2023-01-19T03:19:01;2.83;93.51
71128;SHT30;59249;59.736;30.568;2023-01-19T03:21:35;2.85;93.56
71128;SHT30;59249;59.736;30.568;2023-01-19T03:24:07;2.92;93.56
71128;SHT30;59249;59.736;30.568;2023-01-19T03:26:42;2.93;93.51
71128;SHT30;59249;59.736;30.568;2023-01-19T03:29:14;2.85;93.47
71128;SHT30;59249;59.736;30.568;2023-01-19T03:31:47;2.90;93.58
71128;SHT30;59249;59.736;30.568;2023-01-19T03:34:20;2.79;93.46
71128;SHT30;59249;59.736;30.568;2023-01-19T03:36:54;2.83;93.64
71128;SHT30;59249;59.736;30.568;2023-01-19T03:39:26;2.83;93.84
71128;SHT30;59249;59.736;30.568;2023-01-19T03:42:01;2.95;93.89
71128;SHT30;59249;59.736;30.568;2023-01-19T03:44:34;2.95;93.81
71128;SHT30;59249;59.736;30.568;2023-01-19T03:47:07;2.93;93.54
71128;SHT30;59249;59.736;30.568;2023-01-19T03:49:38;2.96;93.67
71128;SHT30;59249;59.736;30.568;2023-01-19T03:52:07;3.00;93.62
71128;SHT30;59249;59.736;30.568;2023-01-19T03:54:36;2.97;93.82
71128;SHT30;59249;59.736;30.568;2023-01-19T03:57:06;3.04;94.01
71128;SHT30;59249;59.736;30.568;2023-01-19T03:59:36;3.10;94.14
71128;SHT30;59249;59.736;30.568;2023-01-19T04:02:04;3.09;94.05
71128;SHT30;59249;59.736;30.568;2023-01-19T04:04:33;3.18;93.91
71128;SHT30;59249;59.736;30.568;2023-01-19T04:07:02;3.02;93.81
71128;SHT30;59249;59.736;30.568;2023-01-19T04:09:30;3.13;93.87
71128;SHT30;59249;59.736;30.568;2023-01-19T04:11:59;3.01;94.19
71128;SHT30;59249;59.736;30.568;2023-01-19T04:14:31;3.10;94.25
71128;SHT30;59249;59.736;30.568;2023-01-19T04:17:00;3.15;94.15
71128;SHT30;59249;59.736;30.568;2023-01-19T04:19:29;3.21;94.13
71128;SHT30;59249;59.736;30.568;2023-01-19T04:21:58;3.23;94.32
71128;SHT30;59249;59.736;30.568;2023-01-19T04:24:28;3.24;94.33
71128;SHT30;59249;59.736;30.568;2023-01-19T04:26:57;3.27;94.46
71128;SHT30;59249;59.736;30.568;2023-01-19T04:29:26;3.33;94.25
71128;SHT30;59249;59.736;30.568;2023-01-19T04:31:57;3.30;94.19
71128;SHT30;59249;59.736;30.568;2023-01-19T04:34:26;3.37;94.25
71128;SHT30;59249;59.736;30.568;2023-01-19T04:36:54;3.39;94.41
71128;SHT30;59249;59.736;30.568;2023-01-19T04:39:23;3.42;94.48
71128;SHT30;59249;59.736;30.568;2023-01-19T04:41:52;3.37;94.19
71128;SHT30;59249;59.736;30.568;2023-01-19T04:44:22;3.42;94.15
71128;SHT30;59249;59.736;30.568;2023-01-19T04:46:51;3.41;94.39
71128;SHT30;59249;59.736;30.568;2023-01-19T04:49:21;3.47;94.43
71128;SHT30;59249;59.736;30.568;2023-01-19T04:51:52;3.51;94.38
71128;SHT30;59249;59.736;30.568;2023-01-19T04:54:21;3.52;94.49
71128;SHT30;59249;59.736;30.568;2023-01-19T04:56:50;3.53;94.60
71128;SHT30;59249;59.736;30.568;2023-01-19T04:59:19;3.50;94.70
71128;SHT30;59249;59.736;30.568;2023-01-19T05:01:48;3.48;94.88
71128;SHT30;59249;59.736;30.568;2023-01-19T05:04:16;3.54;94.81
71128;SHT30;59249;59.736;30.568;2023-01-19T05:06:47;3.58;94.86
71128;SHT30;59249;59.736;30.568;2023-01-19T05:09:15;3.65;95.16
71128;SHT30;59249;59.736;30.568;2023-01-19T05:11:44;3.70;94.87
71128;SHT30;59249;59.736;30.568;2023-01-19T05:14:13;3.65;94.87
71128;SHT30;59249;59.736;30.568;2023-01-19T05:16:42;3.72;94.99
71128;SHT30;59249;59.736;30.568;2023-01-19T05:19:10;3.73;95.17
71128;SHT30;59249;59.736;30.568;2023-01-19T05:21:39;3.75;95.28
71128;SHT30;59249;59.736;30.568;2023-01-19T05:24:09;3.82;95.35
71128;SHT30;59249;59.736;30.568;2023-01-19T05:26:38;3.90;95.54
71128;SHT30;59249;59.736;30.568;2023-01-19T05:29:07;3.95;95.45
71128;SHT30;59249;59.736;30.568;2023-01-19T05:31:36;4.02;95.46
71128;SHT30;59249;59.736;30.568;2023-01-19T05:34:05;4.06;95.38
71128;SHT30;59249;59.736;30.568;2023-01-19T05:36:34;4.02;95.37
71128;SHT30;59249;59.736;30.568;2023-01-19T05:39:03;4.07;95.37
71128;SHT30;59249;59.736;30.568;2023-01-19T05:41:33;4.13;95.39
71128;SHT30;59249;59.736;30.568;2023-01-19T05:44:01;4.10;95.56
71128;SHT30;59249;59.736;30.568;2023-01-19T05:46:32;4.25;95.56
71128;SHT30;59249;59.736;30.568;2023-01-19T05:49:01;4.26;95.74
71128;SHT30;59249;59.736;30.568;2023-01-19T05:51:31;4.42;95.79
71128;SHT30;59249;59.736;30.568;2023-01-19T05:54:05;4.49;95.67
71128;SHT30;59249;59.736;30.568;2023-01-19T05:56:35;4.59;95.97
71128;SHT30;59249;59.736;30.568;2023-01-19T05:59:05;4.64;95.86
71128;SHT30;59249;59.736;30.568;2023-01-19T06:01:34;4.65;96.00
71128;SHT30;59249;59.736;30.568;2023-01-19T06:04:06;4.71;96.10
71128;SHT30;59249;59.736;30.568;2023-01-19T06:06:34;4.76;96.11
71128;SHT30;59249;59.736;30.568;2023-01-19T06:09:03;4.86;96.32
71128;SHT30;59249;59.736;30.568;2023-01-19T06:11:35;4.89;96.07
71128;SHT30;59249;59.736;30.568;2023-01-19T06:14:04;4.95;96.08
71128;SHT30;59249;59.736;30.568;2023-01-19T06:16:33;5.05;95.97
71128;SHT30;59249;59.736;30.568;2023-01-19T06:19:02;5.03;95.77
71128;SHT30;59249;59.736;30.568;2023-01-19T06:21:31;5.08;95.89
71128;SHT30;59249;59.736;30.568;2023-01-19T06:24:00;5.16;95.93
71128;SHT30;59249;59.736;30.568;2023-01-19T06:26:29;5.20;95.87
71128;SHT30;59249;59.736;30.568;2023-01-19T06:28:59;5.17;95.89
71128;SHT30;59249;59.736;30.568;2023-01-19T06:31:28;5.26;95.71
71128;SHT30;59249;59.736;30.568;2023-01-19T06:33:57;5.32;95.65
71128;SHT30;59249;59.736;30.568;2023-01-19T06:36:25;5.22;95.68
71128;SHT30;59249;59.736;30.568;2023-01-19T06:38:54;5.36;95.15
71128;SHT30;59249;59.736;30.568;2023-01-19T06:41:23;5.42;95.49
71128;SHT30;59249;59.736;30.568;2023-01-19T06:43:51;5.36;95.35
71128;SHT30;59249;59.736;30.568;2023-01-19T06:46:21;5.42;95.39
71128;SHT30;59249;59.736;30.568;2023-01-19T06:48:50;5.47;95.50
71128;SHT30;59249;59.736;30.568;2023-01-19T06:51:18;5.42;94.70
71128;SHT30;59249;59.736;30.568;2023-01-19T06:53:47;5.39;95.07
71128;SHT30;59249;59.736;30.568;2023-01-19T06:56:16;5.42;94.51
71128;SHT30;59249;59.736;30.568;2023-01-19T06:58:46;5.45;94.39
71128;SHT30;59249;59.736;30.568;2023-01-19T07:01:16;5.44;94.19
71128;SHT30;59249;59.736;30.568;2023-01-19T07:03:46;5.56;94.48
71128;SHT30;59249;59.736;30.568;2023-01-19T07:06:15;5.53;94.41
71128;SHT30;59249;59.736;30.568;2023-01-19T07:08:44;5.42;94.16
71128;SHT30;59249;59.736;30.568;2023-01-19T07:11:12;5.41;94.20
71128;SHT30;59249;59.736;30.568;2023-01-19T07:13:55;5.47;94.00
71128;SHT30;59249;59.736;30.568;2023-01-19T07:16:24;5.49;94.10
71128;SHT30;59249;59.736;30.568;2023-01-19T07:18:54;5.30;93.99
71128;SHT30;59249;59.736;30.568;2023-01-19T07:21:23;5.35;93.94
71128;SHT30;59249;59.736;30.568;2023-01-19T07:23:55;5.47;93.32
71128;SHT30;59249;59.736;30.568;2023-01-19T07:26:24;5.38;93.70
71128;SHT30;59249;59.736;30.568;2023-01-19T07:28:54;5.35;93.87
71128;SHT30;59249;59.736;30.568;2023-01-19T07:31:22;5.31;93.94
71128;SHT30;59249;59.736;30.568;2023-01-19T07:33:51;5.47;93.49
71128;SHT30;59249;59.736;30.568;2023-01-19T07:36:21;5.24;93.53
71128;SHT30;59249;59.736;30.568;2023-01-19T07:38:50;5.42;93.33
71128;SHT30;59249;59.736;30.568;2023-01-19T07:41:19;5.40;93.00
71128;SHT30;59249;59.736;30.568;2023-01-19T07:43:48;5.44;93.15
71128;SHT30;59249;59.736;30.568;2023-01-19T07:46:17;5.33;93.32
71128;SHT30;59249;59.736;30.568;2023-01-19T07:48:46;5.35;93.04
71128;SHT30;59249;59.736;30.568;2023-01-19T07:51:15;5.28;92.99
71128;SHT30;59249;59.736;30.568;2023-01-19T07:53:49;5.30;93.10
71128;SHT30;59249;59.736;30.568;2023-01-19T07:56:18;5.28;92.67
71128;SHT30;59249;59.736;30.568;2023-01-19T07:58:48;5.35;92.81
71128;SHT30;59249;59.736;30.568;2023-01-19T08:01:18;5.30;92.69
71128;SHT30;59249;59.736;30.568;2023-01-19T08:03:48;5.19;92.32
71128;SHT30;59249;59.736;30.568;2023-01-19T08:06:21;5.14;92.01
71128;SHT30;59249;59.736;30.568;2023-01-19T08:08:51;5.02;92.01
71128;SHT30;59249;59.736;30.568;2023-01-19T08:11:20;5.02;91.67
71128;SHT30;59249;59.736;30.568;2023-01-19T08:13:49;5.04;91.73
71128;SHT30;59249;59.736;30.568;2023-01-19T08:16:17;4.94;92.07
71128;SHT30;59249;59.736;30.568;2023-01-19T08:18:46;4.91;92.14
71128;SHT30;59249;59.736;30.568;2023-01-19T08:21:15;5.00;92.17
71128;SHT30;59249;59.736;30.568;2023-01-19T08:23:43;4.95;91.98
71128;SHT30;59249;59.736;30.568;2023-01-19T08:26:25;4.99;91.76
71128;SHT30;59249;59.736;30.568;2023-01-19T08:28:57;4.84;91.92
71128;SHT30;59249;59.736;30.568;2023-01-19T08:31:26;4.75;91.83
71128;SHT30;59249;59.736;30.568;2023-01-19T08:33:55;4.69;92.02
71128;SHT30;59249;59.736;30.568;2023-01-19T08:36:24;4.73;92.07
71128;SHT30;59249;59.736;30.568;2023-01-19T08:38:53;4.75;91.71
71128;SHT30;59249;59.736;30.568;2023-01-19T08:41:23;4.81;91.57
71128;SHT30;59249;59.736;30.568;2023-01-19T08:43:52;4.94;91.45
71128;SHT30;59249;59.736;30.568;2023-01-19T08:46:21;4.86;91.51
71128;SHT30;59249;59.736;30.568;2023-01-19T08:48:50;4.85;91.47
71128;SHT30;59249;59.736;30.568;2023-01-19T08:51:19;4.81;91.43
71128;SHT30;59249;59.736;30.568;2023-01-19T08:53:47;4.74;91.32
71128;SHT30;59249;59.736;30.568;2023-01-19T08:56:16;4.83;91.49
71128;SHT30;59249;59.736;30.568;2023-01-19T08:58:48;4.81;91.38
71128;SHT30;59249;59.736;30.568;2023-01-19T09:01:37;4.72;91.32
71128;SHT30;59249;59.736;30.568;2023-01-19T09:04:06;4.88;91.01
71128;SHT30;59249;59.736;30.568;2023-01-19T09:06:34;4.78;91.25
71128;SHT30;59249;59.736;30.568;2023-01-19T09:09:03;4.65;90.48
71128;SHT30;59249;59.736;30.568;2023-01-19T09:11:32;4.57;90.94
71128;SHT30;59249;59.736;30.568;2023-01-19T09:14:03;4.56;90.82
71128;SHT30;59249;59.736;30.568;2023-01-19T09:16:32;4.70;90.85
71128;SHT30;59249;59.736;30.568;2023-01-19T09:19:01;4.51;90.70
71128;SHT30;59249;59.736;30.568;2023-01-19T09:21:30;4.58;90.64
71128;SHT30;59249;59.736;30.568;2023-01-19T09:23:58;4.55;90.81
71128;SHT30;59249;59.736;30.568;2023-01-19T09:26:27;4.49;90.62
71128;SHT30;59249;59.736;30.568;2023-01-19T09:28:59;4.50;89.92
71128;SHT30;59249;59.736;30.568;2023-01-19T09:31:29;4.40;89.97
71128;SHT30;59249;59.736;30.568;2023-01-19T09:33:58;4.42;90.10
71128;SHT30;59249;59.736;30.568;2023-01-19T09:36:26;4.33;89.80
71128;SHT30;59249;59.736;30.568;2023-01-19T09:38:56;4.28;89.79
71128;SHT30;59249;59.736;30.568;2023-01-19T09:41:25;4.40;89.88
71128;SHT30;59249;59.736;30.568;2023-01-19T09:43:58;4.27;89.93
71128;SHT30;59249;59.736;30.568;2023-01-19T09:46:35;4.30;90.15
71128;SHT30;59249;59.736;30.568;2023-01-19T09:49:13;4.33;89.80
71128;SHT30;59249;59.736;30.568;2023-01-19T09:51:46;4.26;89.45
71128;SHT30;59249;59.736;30.568;2023-01-19T09:54:18;4.14;89.25
71128;SHT30;59249;59.736;30.568;2023-01-19T09:56:48;4.23;89.66
71128;SHT30;59249;59.736;30.568;2023-01-19T09:59:22;4.19;89.71
71128;SHT30;59249;59.736;30.568;2023-01-19T10:02:24;4.23;89.52
71128;SHT30;59249;59.736;30.568;2023-01-19T10:04:59;4.25;89.13
71128;SHT30;59249;59.736;30.568;2023-01-19T10:07:57;4.28;88.96
71128;SHT30;59249;59.736;30.568;2023-01-19T10:10:33;4.51;89.32
71128;SHT30;59249;59.736;30.568;2023-01-19T10:13:24;4.43;89.07
71128;SHT30;59249;59.736;30.568;2023-01-19T10:16:06;4.42;88.75
71128;SHT30;59249;59.736;30.568;2023-01-19T10:18:43;4.16;87.98
71128;SHT30;59249;59.736;30.568;2023-01-19T10:21:18;4.30;88.38
71128;SHT30;59249;59.736;30.568;2023-01-19T10:23:52;4.21;88.01
71128;SHT30;59249;59.736;30.568;2023-01-19T10:26:24;4.20;88.14
71128;SHT30;59249;59.736;30.568;2023-01-19T10:29:01;4.14;88.48
71128;SHT30;59249;59.736;30.568;2023-01-19T10:31:33;4.07;88.51
71128;SHT30;59249;59.736;30.568;2023-01-19T10:34:04;3.98;88.98
71128;SHT30;59249;59.736;30.568;2023-01-19T10:36:36;3.94;89.18
71128;SHT30;59249;59.736;30.568;2023-01-19T10:39:06;3.76;89.27
71128;SHT30;59249;59.736;30.568;2023-01-19T10:41:41;3.73;89.94
71128;SHT30;59249;59.736;30.568;2023-01-19T10:44:11;3.78;89.84
71128;SHT30;59249;59.736;30.568;2023-01-19T10:46:43;3.63;90.25
71128;SHT30;59249;59.736;30.568;2023-01-19T10:49:30;3.88;90.22
71128;SHT30;59249;59.736;30.568;2023-01-19T10:52:06;3.73;89.93
71128;SHT30;59249;59.736;30.568;2023-01-19T10:54:36;3.67;89.86
71128;SHT30;59249;59.736;30.568;2023-01-19T10:57:09;3.72;89.77
71128;SHT30;59249;59.736;30.568;2023-01-19T10:59:47;3.71;89.66
71128;SHT30;59249;59.736;30.568;2023-01-19T11:02:20;3.69;89.82
71128;SHT30;59249;59.736;30.568;2023-01-19T11:04:52;3.70;90.09
71128;SHT30;59249;59.736;30.568;2023-01-19T11:07:26;3.70;89.89
71128;SHT30;59249;59.736;30.568;2023-01-19T11:10:19;3.53;89.15
71128;SHT30;59249;59.736;30.568;2023-01-19T11:12:59;3.63;89.15
71128;SHT30;59249;59.736;30.568;2023-01-19T11:15:33;3.58;89.43
71128;SHT30;59249;59.736;30.568;2023-01-19T11:18:04;3.54;89.20
71128;SHT30;59249;59.736;30.568;2023-01-19T11:20:49;3.48;89.43
71128;SHT30;59249;59.736;30.568;2023-01-19T11:23:25;3.48;89.31
71128;SHT30;59249;59.736;30.568;2023-01-19T11:25:59;3.44;88.92
71128;SHT30;59249;59.736;30.568;2023-01-19T11:28:33;3.51;88.35
71128;SHT30;59249;59.736;30.568;2023-01-19T11:31:18;3.46;88.54
71128;SHT30;59249;59.736;30.568;2023-01-19T11:33:53;3.51;88.95
71128;SHT30;59249;59.736;30.568;2023-01-19T11:36:26;3.48;88.58
71128;SHT30;59249;59.736;30.568;2023-01-19T11:38:58;3.39;88.59
71128;SHT30;59249;59.736;30.568;2023-01-19T11:41:29;3.38;88.81
71128;SHT30;59249;59.736;30.568;2023-01-19T11:44:10;3.36;88.87
71128;SHT30;59249;59.736;30.568;2023-01-19T11:46:45;3.40;88.87
71128;SHT30;59249;59.736;30.568;2023-01-19T11:49:24;3.32;88.79
71128;SHT30;59249;59.736;30.568;2023-01-19T11:52:03;3.23;88.73
71128;SHT30;59249;59.736;30.568;2023-01-19T11:54:40;3.34;88.68
71128;SHT30;59249;59.736;30.568;2023-01-19T11:57:15;3.26;88.91
71128;SHT30;59249;59.736;30.568;2023-01-19T11:59:47;3.30;88.56
71128;SHT30;59249;59.736;30.568;2023-01-19T12:02:25;3.26;88.69
71128;SHT30;59249;59.736;30.568;2023-01-19T12:05:00;3.20;88.87
71128;SHT30;59249;59.736;30.568;2023-01-19T12:07:35;3.23;88.75
71128;SHT30;59249;59.736;30.568;2023-01-19T12:10:21;3.16;88.63
71128;SHT30;59249;59.736;30.568;2023-01-19T12:12:52;3.26;88.52
71128;SHT30;59249;59.736;30.568;2023-01-19T12:15:29;3.26;88.37
71128;SHT30;59249;59.736;30.568;2023-01-19T12:18:02;3.19;88.37
71128;SHT30;59249;59.736;30.568;2023-01-19T12:20:37;3.29;88.45
71128;SHT30;59249;59.736;30.568;2023-01-19T12:23:22;3.18;88.49
71128;SHT30;59249;59.736;30.568;2023-01-19T12:26:14;3.13;88.54
71128;SHT30;59249;59.736;30.568;2023-01-19T12:28:51;3.17;88.68
71128;SHT30;59249;59.736;30.568;2023-01-19T12:31:21;3.23;88.68
71128;SHT30;59249;59.736;30.568;2023-01-19T12:33:50;3.18;88.50
71128;SHT30;59249;59.736;30.568;2023-01-19T12:36:37;3.28;88.23
71128;SHT30;59249;59.736;30.568;2023-01-19T12:39:16;3.30;88.40
71128;SHT30;59249;59.736;30.568;2023-01-19T12:41:47;3.25;88.23
71128;SHT30;59249;59.736;30.568;2023-01-19T12:44:28;3.27;88.13
71128;SHT30;59249;59.736;30.568;2023-01-19T12:47:18;3.20;87.76
71128;SHT30;59249;59.736;30.568;2023-01-19T12:49:54;3.08;87.97
71128;SHT30;59249;59.736;30.568;2023-01-19T12:52:30;3.09;88.05
71128;SHT30;59249;59.736;30.568;2023-01-19T12:55:16;3.16;88.13
71128;SHT30;59249;59.736;30.568;2023-01-19T12:57:55;3.09;88.02
71128;SHT30;59249;59.736;30.568;2023-01-19T13:00:38;3.21;88.00
71128;SHT30;59249;59.736;30.568;2023-01-19T13:03:56;3.16;87.87
71128;SHT30;59249;59.736;30.568;2023-01-19T13:07:08;3.07;87.59
71128;SHT30;59249;59.736;30.568;2023-01-19T13:09:40;3.11;87.72
71128;SHT30;59249;59.736;30.568;2023-01-19T13:12:24;3.28;87.62
71128;SHT30;59249;59.736;30.568;2023-01-19T13:15:31;3.28;87.55
71128;SHT30;59249;59.736;30.568;2023-01-19T13:18:01;3.26;87.49
71128;SHT30;59249;59.736;30.568;2023-01-19T13:20:45;3.18;87.61
71128;SHT30;59249;59.736;30.568;2023-01-19T13:23:23;3.18;87.42
71128;SHT30;59249;59.736;30.568;2023-01-19T13:26:02;3.24;87.40
71128;SHT30;59249;59.736;30.568;2023-01-19T13:28:39;3.20;87.38
71128;SHT30;59249;59.736;30.568;2023-01-19T13:31:09;3.22;87.34
71128;SHT30;59249;59.736;30.568;2023-01-19T13:33:48;3.14;87.50
71128;SHT30;59249;59.736;30.568;2023-01-19T13:36:22;3.07;87.58
71128;SHT30;59249;59.736;30.568;2023-01-19T13:38:54;3.10;87.64
71128;SHT30;59249;59.736;30.568;2023-01-19T13:41:29;2.99;87.94
71128;SHT30;59249;59.736;30.568;2023-01-19T13:44:03;3.05;87.79
71128;SHT30;59249;59.736;30.568;2023-01-19T13:46:32;3.09;87.49
71128;SHT30;59249;59.736;30.568;2023-01-19T13:49:12;3.06;87.46
71128;SHT30;59249;59.736;30.568;2023-01-19T13:51:42;3.10;87.65
71128;SHT30;59249;59.736;30.568;2023-01-19T13:54:15;3.06;87.57
71128;SHT30;59249;59.736;30.568;2023-01-19T13:56:51;3.05;87.65
71128;SHT30;59249;59.736;30.568;2023-01-19T13:59:22;3.18;87.63
71128;SHT30;59249;59.736;30.568;2023-01-19T14:01:52;3.07;87.45
71128;SHT30;59249;59.736;30.568;2023-01-19T14:04:27;3.19;87.71
71128;SHT30;59249;59.736;30.568;2023-01-19T14:07:03;3.00;87.73
71128;SHT30;59249;59.736;30.568;2023-01-19T14:09:33;3.07;87.62
71128;SHT30;59249;59.736;30.568;2023-01-19T14:12:14;3.05;87.73
71128;SHT30;59249;59.736;30.568;2023-01-19T14:14:46;3.11;87.98
71128;SHT30;59249;59.736;30.568;2023-01-19T14:17:23;3.11;87.94
71128;SHT30;59249;59.736;30.568;2023-01-19T14:19:54;3.04;88.02
71128;SHT30;59249;59.736;30.568;2023-01-19T14:22:42;3.02;87.88
71128;SHT30;59249;59.736;30.568;2023-01-19T14:25:29;2.91;88.04
71128;SHT30;59249;59.736;30.568;2023-01-19T14:28:32;2.91;88.32
71128;SHT30;59249;59.736;30.568;2023-01-19T14:31:23;2.93;88.28
71128;SHT30;59249;59.736;30.568;2023-01-19T14:33:55;2.93;88.69
71128;SHT30;59249;59.736;30.568;2023-01-19T14:36:32;2.95;88.73
71128;SHT30;59249;59.736;30.568;2023-01-19T14:39:02;2.97;88.79
71128;SHT30;59249;59.736;30.568;2023-01-19T14:41:37;3.07;88.76
71128;SHT30;59249;59.736;30.568;2023-01-19T14:44:09;3.08;88.49
71128;SHT30;59249;59.736;30.568;2023-01-19T14:46:45;3.18;88.07
71128;SHT30;59249;59.736;30.568;2023-01-19T14:49:20;3.20;87.83
71128;SHT30;59249;59.736;30.568;2023-01-19T14:51:52;3.31;87.38
71128;SHT30;59249;59.736;30.568;2023-01-19T14:54:30;3.18;87.32
71128;SHT30;59249;59.736;30.568;2023-01-19T14:57:00;3.22;87.12
71128;SHT30;59249;59.736;30.568;2023-01-19T14:59:29;3.27;86.57
71128;SHT30;59249;59.736;30.568;2023-01-19T15:02:00;3.39;86.33
71128;SHT30;59249;59.736;30.568;2023-01-19T15:04:29;3.34;86.35
71128;SHT30;59249;59.736;30.568;2023-01-19T15:06:58;3.31;86.27
71128;SHT30;59249;59.736;30.568;2023-01-19T15:09:26;3.30;86.05
71128;SHT30;59249;59.736;30.568;2023-01-19T15:11:56;3.27;85.47
71128;SHT30;59249;59.736;30.568;2023-01-19T15:14:25;3.29;85.69
71128;SHT30;59249;59.736;30.568;2023-01-19T15:16:54;3.31;85.70
71128;SHT30;59249;59.736;30.568;2023-01-19T15:19:27;3.28;85.42
71128;SHT30;59249;59.736;30.568;2023-01-19T15:21:55;3.28;85.44
71128;SHT30;59249;59.736;30.568;2023-01-19T15:24:25;3.23;85.36
71128;SHT30;59249;59.736;30.568;2023-01-19T15:26:54;3.23;85.30
71128;SHT30;59249;59.736;30.568;2023-01-19T15:29:27;3.22;85.17
71128;SHT30;59249;59.736;30.568;2023-01-19T15:31:58;3.12;84.89
71128;SHT30;59249;59.736;30.568;2023-01-19T15:34:29;3.14;84.77
71128;SHT30;59249;59.736;30.568;2023-01-19T15:36:58;3.18;84.66
71128;SHT30;59249;59.736;30.568;2023-01-19T15:39:27;3.04;84.70
71128;SHT30;59249;59.736;30.568;2023-01-19T15:41:57;2.94;84.80
71128;SHT30;59249;59.736;30.568;2023-01-19T15:44:27;2.99;84.50
71128;SHT30;59249;59.736;30.568;2023-01-19T15:46:57;2.92;84.79
71128;SHT30;59249;59.736;30.568;2023-01-19T15:49:28;2.81;84.68
71128;SHT30;59249;59.736;30.568;2023-01-19T15:51:57;2.85;84.68
71128;SHT30;59249;59.736;30.568;2023-01-19T15:54:26;2.88;84.92
71128;SHT30;59249;59.736;30.568;2023-01-19T15:56:55;2.88;84.30
71128;SHT30;59249;59.736;30.568;2023-01-19T15:59:24;2.84;84.15
71128;SHT30;59249;59.736;30.568;2023-01-19T16:01:53;2.81;84.76
71128;SHT30;59249;59.736;30.568;2023-01-19T16:04:25;2.81;84.45
71128;SHT30;59249;59.736;30.568;2023-01-19T16:06:55;2.72;85.07
71128;SHT30;59249;59.736;30.568;2023-01-19T16:09:24;2.83;84.88
71128;SHT30;59249;59.736;30.568;2023-01-19T16:11:54;2.72;85.07